createdAt,value
2023-05-01T00:00:28.686Z,77.82
2023-05-01T00:02:55.676Z,74.01
2023-05-01T00:05:22.516Z,73.85
2023-05-01T00:07:49.801Z,74.42
2023-05-01T00:10:17.191Z,75.79
2023-05-01T00:12:44.081Z,73.47
2023-05-01T00:15:11.254Z,72.94
2023-05-01T00:17:37.980Z,74.13
2023-05-01T00:20:05.478Z,73.80
2023-05-01T00:22:32.272Z,72.30
2023-05-01T00:24:59.746Z,76.80
2023-05-01T00:27:26.721Z,73.27
2023-05-01T00:29:53.561Z,75.54
2023-05-01T00:32:20.875Z,74.43
2023-05-01T00:34:48.692Z,76.17
2023-05-01T00:37:16.393Z,74.32
2023-05-01T00:39:43.194Z,73.21
2023-05-01T00:42:09.970Z,77.51
2023-05-01T00:44:36.907Z,75.08
2023-05-01T00:47:04.469Z,76.97
2023-05-01T00:49:31.491Z,75.46
2023-05-01T00:51:58.609Z,74.64
2023-05-01T00:54:27.716Z,72.64
2023-05-01T00:56:54.876Z,75.59
2023-05-01T00:59:21.643Z,80.33
2023-05-01T01:01:48.650Z,81.72
2023-05-01T01:04:15.721Z,82.81
2023-05-01T01:07:03.446Z,82.30
2023-05-01T01:09:53.082Z,82.38
2023-05-01T01:12:44.292Z,83.31
2023-05-01T01:15:27.268Z,83.59
2023-05-01T01:18:26.783Z,81.71
2023-05-01T01:21:10.130Z,83.47
2023-05-01T01:24:18.722Z,86.22
2023-05-01T01:26:57.354Z,86.36
2023-05-01T01:30:02.712Z,85.79
2023-05-01T01:33:01.611Z,88.21
2023-05-01T01:35:30.312Z,86.58
2023-05-01T01:38:20.772Z,88.31
2023-05-01T01:40:58.233Z,85.90
2023-05-01T01:43:27.076Z,82.41
2023-05-01T01:46:00.494Z,83.40
2023-05-01T01:48:32.177Z,84.38
2023-05-01T01:50:59.483Z,86.02
2023-05-01T01:53:28.563Z,86.60
2023-05-01T01:55:57.358Z,88.87
2023-05-01T01:58:26.296Z,90.77
2023-05-01T02:00:54.068Z,91.33
2023-05-01T02:03:21.989Z,91.87
2023-05-01T02:05:49.595Z,89.98
2023-05-01T02:08:16.798Z,90.59
2023-05-01T02:10:44.500Z,89.51
2023-05-01T02:13:13.614Z,88.30
2023-05-01T02:15:41.353Z,88.49
2023-05-01T02:18:09.023Z,86.18
2023-05-01T02:20:37.048Z,89.79
2023-05-01T02:23:04.272Z,92.67
2023-05-01T02:25:32.967Z,92.70
2023-05-01T02:28:08.914Z,91.28
2023-05-01T02:30:36.128Z,92.37
2023-05-01T02:33:03.257Z,89.07
2023-05-01T02:35:30.003Z,89.25
2023-05-01T02:37:57.345Z,91.28
2023-05-01T02:40:24.348Z,91.32
2023-05-01T02:42:52.144Z,90.56
2023-05-01T02:45:22.802Z,91.30
2023-05-01T02:47:52.124Z,90.83
2023-05-01T02:50:19.929Z,91.37
2023-05-01T02:52:47.593Z,91.06
2023-05-01T02:55:27.054Z,90.80
2023-05-01T02:57:53.813Z,92.88
2023-05-01T03:00:20.919Z,93.13
2023-05-01T03:02:48.066Z,92.83
2023-05-01T03:05:16.171Z,91.88
2023-05-01T03:07:42.839Z,94.08
2023-05-01T03:10:11.064Z,94.28
2023-05-01T03:12:37.836Z,94.41
2023-05-01T03:15:05.943Z,92.96
2023-05-01T03:17:32.717Z,93.52
2023-05-01T03:19:59.486Z,94.59
2023-05-01T03:22:29.528Z,94.88
2023-05-01T03:24:56.223Z,94.85
2023-05-01T03:27:22.911Z,93.80
2023-05-01T03:29:49.992Z,94.32
2023-05-01T03:32:18.217Z,95.88
2023-05-01T03:34:47.030Z,95.43
2023-05-01T03:37:15.908Z,95.87
2023-05-01T03:39:42.601Z,95.36
2023-05-01T03:42:32.378Z,95.42
2023-05-01T03:45:07.037Z,94.06
2023-05-01T03:47:33.858Z,94.87
2023-05-01T03:50:00.631Z,93.41
2023-05-01T03:52:27.729Z,92.31
2023-05-01T03:54:55.901Z,91.63
2023-05-01T03:57:34.830Z,93.32
2023-05-01T04:00:01.862Z,93.24
2023-05-01T04:02:31.818Z,95.77
2023-05-01T04:04:58.667Z,96.32
2023-05-01T04:07:25.530Z,98.08
2023-05-01T04:09:52.349Z,100.00
2023-05-01T04:12:19.699Z,100.00
2023-05-01T04:14:47.133Z,99.65
2023-05-01T04:17:13.887Z,100.00
2023-05-01T04:19:41.599Z,100.00
2023-05-01T04:22:08.549Z,100.00
2023-05-01T04:24:36.608Z,98.15
2023-05-01T04:27:03.661Z,97.51
2023-05-01T04:29:30.347Z,98.18
2023-05-01T04:31:57.579Z,100.00
2023-05-01T04:34:24.619Z,99.35
2023-05-01T04:36:51.911Z,100.00
2023-05-01T04:39:19.415Z,100.00
2023-05-01T04:41:46.538Z,100.00
2023-05-01T04:44:13.476Z,100.00
2023-05-01T04:46:40.394Z,100.00
2023-05-01T04:49:07.847Z,100.00
2023-05-01T04:51:34.519Z,100.00
2023-05-01T04:54:02.298Z,100.00
2023-05-01T04:56:29.113Z,100.00
2023-05-01T04:59:00.281Z,100.00
2023-05-01T05:01:28.428Z,100.00
2023-05-01T05:03:55.657Z,100.00
2023-05-01T05:06:23.134Z,100.00
2023-05-01T05:08:52.091Z,100.00
2023-05-01T05:11:19.368Z,100.00
2023-05-01T05:13:49.073Z,100.00
2023-05-01T05:16:16.038Z,100.00
2023-05-01T05:18:42.816Z,100.00
2023-05-01T05:21:10.650Z,100.00
2023-05-01T05:23:39.540Z,100.00
2023-05-01T05:26:06.604Z,100.00
2023-05-01T05:28:33.462Z,100.00
2023-05-01T05:31:00.151Z,100.00
2023-05-01T05:33:28.619Z,100.00
2023-05-01T05:35:55.733Z,100.00
2023-05-01T05:38:26.811Z,100.00
2023-05-01T05:40:56.533Z,100.00
2023-05-01T05:43:27.296Z,100.00
2023-05-01T05:45:58.871Z,100.00
2023-05-01T05:48:27.398Z,100.00
2023-05-01T05:50:54.198Z,100.00
2023-05-01T05:53:22.459Z,100.00
2023-05-01T05:55:51.167Z,100.00
2023-05-01T05:58:25.975Z,100.00
2023-05-01T06:00:56.288Z,100.00
2023-05-01T06:03:23.715Z,100.00
2023-05-01T06:05:53.579Z,100.00
2023-05-01T06:08:20.615Z,100.00
2023-05-01T06:10:48.126Z,100.00
2023-05-01T06:13:15.614Z,100.00
2023-05-01T06:15:47.197Z,100.00
2023-05-01T06:18:17.114Z,100.00
2023-05-01T06:20:45.323Z,100.00
2023-05-01T06:23:13.765Z,100.00
2023-05-01T06:25:49.133Z,100.00
2023-05-01T06:28:16.133Z,98.90
2023-05-01T06:30:43.130Z,85.68
2023-05-01T06:33:11.159Z,74.00
2023-05-01T06:35:41.820Z,67.30
2023-05-01T06:38:09.924Z,60.13
2023-05-01T06:40:36.853Z,59.74
2023-05-01T06:43:04.012Z,65.01
2023-05-01T06:45:31.095Z,63.35
2023-05-01T06:47:57.935Z,68.04
2023-05-01T06:50:31.975Z,70.35
2023-05-01T06:53:03.214Z,75.91
2023-05-01T06:55:32.402Z,77.43
2023-05-01T06:58:02.738Z,78.96
2023-05-01T07:00:41.964Z,78.18
2023-05-01T07:03:09.180Z,77.86
2023-05-01T07:05:36.799Z,79.22
2023-05-01T07:08:03.844Z,81.62
2023-05-01T07:10:33.396Z,79.93
2023-05-01T07:13:05.786Z,79.17
2023-05-01T07:15:36.435Z,68.69
2023-05-01T07:18:06.196Z,67.00
2023-05-01T07:20:34.699Z,72.12
2023-05-01T07:23:01.639Z,62.96
2023-05-01T07:25:28.400Z,69.19
2023-05-01T07:27:55.415Z,65.48
2023-05-01T07:30:22.222Z,63.99
2023-05-01T07:32:49.101Z,67.00
2023-05-01T07:35:18.556Z,65.81
2023-05-01T07:37:45.788Z,71.04
2023-05-01T07:40:12.894Z,67.89
2023-05-01T07:42:39.997Z,64.25
2023-05-01T07:45:08.066Z,68.69
2023-05-01T07:47:35.334Z,67.10
2023-05-01T07:50:03.347Z,77.63
2023-05-01T07:52:30.555Z,69.02
2023-05-01T07:54:57.455Z,67.90
2023-05-01T07:57:25.520Z,67.85
2023-05-01T07:59:56.971Z,69.04
2023-05-01T08:02:24.834Z,69.29
2023-05-01T08:04:54.972Z,67.55
2023-05-01T08:07:21.936Z,74.38
2023-05-01T08:09:48.917Z,72.16
2023-05-01T08:12:18.281Z,72.02
2023-05-01T08:14:45.582Z,69.65
2023-05-01T08:17:12.444Z,67.08
2023-05-01T08:19:39.243Z,69.21
2023-05-01T08:22:06.339Z,74.24
2023-05-01T08:24:33.253Z,71.16
2023-05-01T08:27:00.386Z,75.87
2023-05-01T08:29:27.402Z,73.16
2023-05-01T08:31:56.296Z,71.99
2023-05-01T08:34:27.165Z,70.78
2023-05-01T08:36:54.161Z,70.43
2023-05-01T08:39:20.989Z,72.77
2023-05-01T08:41:49.433Z,75.65
2023-05-01T08:44:47.973Z,75.09
2023-05-01T08:47:31.660Z,77.08
2023-05-01T08:49:59.784Z,76.91
2023-05-01T08:52:27.755Z,76.73
2023-05-01T08:54:59.185Z,78.19
2023-05-01T08:57:27.056Z,83.25
2023-05-01T08:59:56.925Z,82.85
2023-05-01T09:02:24.646Z,84.20
2023-05-01T09:04:51.786Z,84.34
2023-05-01T09:07:18.799Z,81.18
2023-05-01T09:09:45.552Z,84.50
2023-05-01T09:12:23.394Z,83.56
2023-05-01T09:14:54.879Z,84.85
2023-05-01T09:17:25.299Z,84.49
2023-05-01T09:19:52.932Z,85.21
2023-05-01T09:22:19.878Z,84.78
2023-05-01T09:24:47.615Z,83.73
2023-05-01T09:27:15.792Z,87.25
2023-05-01T09:29:47.999Z,89.44
2023-05-01T09:32:23.545Z,93.32
2023-05-01T09:34:51.950Z,90.61
2023-05-01T09:37:32.972Z,92.99
2023-05-01T09:40:10.466Z,97.33
2023-05-01T09:42:52.487Z,96.03
2023-05-01T09:45:19.924Z,95.76
2023-05-01T09:47:47.357Z,94.10
2023-05-01T09:50:34.681Z,94.15
2023-05-01T09:53:04.706Z,92.50
2023-05-01T09:55:31.880Z,92.73
2023-05-01T09:58:01.385Z,87.95
2023-05-01T10:00:28.294Z,91.38
2023-05-01T10:02:55.879Z,91.54
2023-05-01T10:05:23.346Z,92.35
2023-05-01T10:08:02.213Z,93.38
2023-05-01T10:10:29.626Z,91.32
2023-05-01T10:12:56.998Z,91.38
2023-05-01T10:15:38.127Z,88.86
2023-05-01T10:18:05.731Z,89.56
2023-05-01T10:20:36.163Z,88.47
2023-05-01T10:23:09.439Z,87.73
2023-05-01T10:25:39.687Z,93.23
2023-05-01T10:28:11.446Z,93.96
2023-05-01T10:30:38.909Z,91.67
2023-05-01T10:33:07.017Z,90.09
2023-05-01T10:35:38.450Z,96.31
2023-05-01T10:38:09.626Z,95.72
2023-05-01T10:40:39.699Z,93.32
2023-05-01T10:43:16.971Z,91.08
2023-05-01T10:45:45.668Z,96.26
2023-05-01T10:48:45.161Z,96.97
2023-05-01T10:54:14.302Z,94.81
2023-05-01T10:56:43.536Z,94.19
2023-05-01T10:59:11.638Z,93.45
2023-05-01T11:01:40.025Z,94.08
2023-05-01T11:07:13.599Z,95.63
2023-05-01T11:09:55.769Z,90.87
2023-05-01T11:12:41.640Z,87.11
2023-05-01T11:15:09.884Z,88.23
2023-05-01T11:17:43.471Z,88.09
2023-05-01T11:20:37.019Z,90.41
2023-05-01T11:23:04.012Z,88.20
2023-05-01T11:25:31.967Z,88.17
2023-05-01T11:28:01.206Z,85.42
2023-05-01T11:30:41.211Z,85.30
2023-05-01T11:33:10.562Z,79.44
2023-05-01T11:35:38.870Z,82.81
2023-05-01T11:38:05.792Z,81.10
2023-05-01T11:40:34.958Z,76.72
2023-05-01T11:43:09.481Z,76.44
2023-05-01T11:45:37.600Z,73.30
2023-05-01T11:48:05.682Z,69.33
2023-05-01T11:50:34.171Z,71.79
2023-05-01T11:53:01.281Z,75.47
2023-05-01T11:55:35.619Z,73.01
2023-05-01T11:58:05.033Z,71.62
2023-05-01T12:00:38.400Z,68.80
2023-05-01T12:03:08.154Z,67.91
2023-05-01T12:08:54.483Z,69.47
2023-05-01T12:11:21.647Z,65.93
2023-05-01T12:13:50.339Z,65.87
2023-05-01T12:16:17.500Z,70.69
2023-05-01T12:18:44.411Z,67.59
2023-05-01T12:21:20.721Z,71.26
2023-05-01T12:23:47.934Z,69.99
2023-05-01T12:26:26.048Z,76.55
2023-05-01T12:29:04.173Z,85.29
2023-05-01T12:31:33.377Z,88.40
2023-05-01T12:34:02.259Z,84.22
2023-05-01T12:39:42.550Z,83.25
2023-05-01T12:42:34.013Z,85.75
2023-05-01T12:45:06.139Z,84.45
2023-05-01T12:47:41.241Z,82.11
2023-05-01T12:50:08.969Z,80.58
2023-05-01T12:52:36.008Z,79.68
2023-05-01T12:55:06.037Z,81.08
2023-05-01T12:57:33.199Z,83.52
2023-05-01T13:00:11.162Z,79.93
2023-05-01T13:02:38.553Z,78.64
2023-05-01T13:05:07.605Z,84.19
2023-05-01T13:07:35.362Z,82.68
2023-05-01T13:10:04.010Z,85.62
2023-05-01T13:12:31.186Z,82.01
2023-05-01T13:14:58.919Z,81.88
2023-05-01T13:17:31.353Z,82.58
2023-05-01T13:20:00.330Z,78.05
2023-05-01T13:22:37.365Z,74.43
2023-05-01T13:25:16.314Z,76.07
2023-05-01T13:27:55.464Z,71.69
2023-05-01T13:30:32.609Z,69.97
2023-05-01T13:32:59.797Z,66.67
2023-05-01T13:35:27.537Z,67.85
2023-05-01T13:37:54.599Z,67.22
2023-05-01T13:40:22.833Z,69.27
2023-05-01T13:42:52.784Z,69.14
2023-05-01T13:45:23.723Z,68.16
2023-05-01T13:47:52.074Z,64.74
2023-05-01T13:50:19.523Z,66.06
2023-05-01T13:52:47.446Z,64.45
2023-05-01T13:55:19.736Z,68.30
2023-05-01T13:57:46.708Z,67.20
2023-05-01T14:00:18.008Z,66.92
2023-05-01T14:02:48.716Z,65.74
2023-05-01T14:05:26.888Z,66.85
2023-05-01T14:07:55.640Z,63.21
2023-05-01T14:10:23.812Z,63.52
2023-05-01T14:12:51.097Z,63.11
2023-05-01T14:15:18.899Z,61.53
2023-05-01T14:20:13.814Z,62.07
2023-05-01T14:22:45.083Z,61.06
2023-05-01T14:25:31.886Z,62.08
2023-05-01T14:27:59.528Z,61.45
2023-05-01T14:30:30.259Z,63.65
2023-05-01T14:32:57.435Z,64.69
2023-05-01T14:35:24.731Z,64.71
2023-05-01T14:37:51.736Z,65.84
2023-05-01T14:40:28.103Z,65.32
2023-05-01T14:42:57.271Z,64.04
2023-05-01T14:45:24.283Z,62.94
2023-05-01T14:47:51.512Z,62.74
2023-05-01T14:50:23.728Z,61.44
2023-05-01T14:52:58.508Z,58.92
2023-05-01T14:55:43.878Z,58.04
2023-05-01T15:01:02.807Z,57.28
2023-05-01T15:03:41.195Z,57.79
2023-05-01T15:06:15.435Z,55.83
2023-05-01T15:08:43.831Z,56.25
2023-05-01T15:11:11.596Z,58.65
2023-05-01T15:13:39.217Z,57.47
2023-05-01T15:16:12.880Z,58.17
2023-05-01T15:18:40.129Z,58.24
2023-05-01T15:21:07.143Z,57.12
2023-05-01T15:23:34.020Z,57.86
2023-05-01T15:26:03.994Z,58.47
2023-05-01T15:28:31.665Z,59.96
2023-05-01T15:30:58.351Z,58.12
2023-05-01T15:33:25.553Z,56.54
2023-05-01T15:35:55.995Z,56.91
2023-05-01T15:38:28.657Z,59.25
2023-05-01T15:41:02.704Z,59.80
2023-05-01T15:43:32.610Z,59.46
2023-05-01T15:45:59.979Z,59.36
2023-05-01T15:48:32.669Z,60.20
2023-05-01T15:51:01.800Z,59.36
2023-05-01T15:53:28.713Z,60.67
2023-05-01T15:55:58.824Z,60.86
2023-05-01T15:58:25.874Z,60.81
2023-05-01T16:00:52.892Z,60.41
2023-05-01T16:03:20.433Z,59.52
2023-05-01T16:05:50.604Z,57.75
2023-05-01T16:08:17.741Z,58.64
2023-05-01T16:10:44.505Z,57.58
2023-05-01T16:13:11.420Z,58.44
2023-05-01T16:15:38.657Z,56.35
2023-05-01T16:18:08.537Z,54.70
2023-05-01T16:20:41.961Z,57.52
2023-05-01T16:23:09.156Z,55.82
2023-05-01T16:25:36.104Z,55.79
2023-05-01T16:28:06.259Z,56.42
2023-05-01T16:30:33.176Z,55.64
2023-05-01T16:33:02.316Z,56.68
2023-05-01T16:35:29.214Z,56.33
2023-05-01T16:37:56.104Z,57.09
2023-05-01T16:40:23.134Z,56.11
2023-05-01T16:42:53.617Z,55.72
2023-05-01T16:45:21.075Z,58.24
2023-05-01T16:47:48.175Z,58.02
2023-05-01T16:50:16.470Z,59.95
2023-05-01T16:52:43.371Z,60.96
2023-05-01T16:55:10.298Z,61.33
2023-05-01T16:57:37.980Z,60.93
2023-05-01T17:00:05.611Z,59.25
2023-05-01T17:02:34.019Z,62.98
2023-05-01T17:05:09.997Z,62.11
2023-05-01T17:07:40.506Z,61.60
2023-05-01T17:10:08.055Z,64.02
2023-05-01T17:12:42.171Z,63.61
2023-05-01T17:15:17.372Z,69.01
2023-05-01T17:17:48.219Z,67.14
2023-05-01T17:20:15.235Z,66.44
2023-05-01T17:22:42.150Z,66.21
2023-05-01T17:25:09.763Z,66.05
2023-05-01T17:27:38.006Z,66.73
2023-05-01T17:30:05.379Z,66.74
2023-05-01T17:32:37.043Z,66.02
2023-05-01T17:35:06.099Z,65.18
2023-05-01T17:37:33.786Z,65.48
2023-05-01T17:40:01.886Z,65.86
2023-05-01T17:42:29.168Z,66.36
2023-05-01T17:45:01.827Z,66.40
2023-05-01T17:47:28.837Z,67.84
2023-05-01T17:49:58.362Z,66.88
2023-05-01T17:52:25.415Z,65.45
2023-05-01T17:54:52.517Z,62.73
2023-05-01T17:57:19.352Z,62.98
2023-05-01T17:59:52.291Z,63.79
2023-05-01T18:02:25.309Z,64.08
2023-05-01T18:04:54.473Z,63.06
2023-05-01T18:07:25.307Z,67.06
2023-05-01T18:09:54.689Z,69.67
2023-05-01T18:12:26.123Z,71.13
2023-05-01T18:15:00.114Z,70.04
2023-05-01T18:17:27.544Z,73.52
2023-05-01T18:19:55.113Z,76.13
2023-05-01T18:22:24.248Z,81.16
2023-05-01T18:24:51.566Z,77.28
2023-05-01T18:27:19.435Z,79.76
2023-05-01T18:29:49.671Z,82.96
2023-05-01T18:32:16.717Z,79.64
2023-05-01T18:34:45.567Z,80.34
2023-05-01T18:37:14.464Z,80.53
2023-05-01T18:39:41.813Z,82.48
2023-05-01T18:42:09.892Z,82.40
2023-05-01T18:44:36.853Z,85.09
2023-05-01T18:47:04.936Z,83.90
2023-05-01T18:49:31.869Z,85.38
2023-05-01T18:51:58.694Z,88.04
2023-05-01T18:54:25.559Z,87.36
2023-05-01T18:56:55.545Z,87.63
2023-05-01T18:59:22.944Z,85.40
2023-05-01T19:01:51.082Z,85.70
2023-05-01T19:04:19.327Z,85.81
2023-05-01T19:06:46.342Z,87.87
2023-05-01T19:09:13.647Z,89.32
2023-05-01T19:11:43.581Z,90.58
2023-05-01T19:14:10.776Z,92.74
2023-05-01T19:16:38.017Z,88.97
2023-05-01T19:19:06.821Z,92.48
2023-05-01T19:21:35.933Z,91.44
2023-05-01T19:24:02.769Z,91.38
2023-05-01T19:26:32.824Z,88.98
2023-05-01T19:29:02.609Z,90.29
2023-05-01T19:31:29.721Z,92.42
2023-05-01T19:33:56.710Z,92.55
2023-05-01T19:36:30.090Z,92.24
2023-05-01T19:39:06.547Z,94.54
2023-05-01T19:41:41.237Z,94.35
2023-05-01T19:44:13.596Z,97.77
2023-05-01T19:46:40.546Z,95.78
2023-05-01T19:49:10.419Z,94.99
2023-05-01T19:51:41.616Z,95.85
2023-05-01T19:54:10.947Z,96.31
2023-05-01T19:56:41.950Z,98.48
2023-05-01T19:59:13.257Z,100.00
2023-05-01T20:01:45.038Z,100.00
2023-05-01T20:04:12.392Z,100.00
2023-05-01T20:06:57.021Z,100.00
2023-05-01T20:09:24.899Z,100.00
2023-05-01T20:11:55.045Z,100.00
2023-05-01T20:14:36.067Z,100.00
2023-05-01T20:17:18.544Z,100.00
2023-05-01T20:19:48.387Z,100.00
2023-05-01T20:22:23.084Z,100.00
2023-05-01T20:24:51.930Z,100.00
2023-05-01T20:27:28.487Z,100.00
2023-05-01T20:30:11.802Z,100.00
2023-05-01T20:32:55.916Z,100.00
2023-05-01T20:35:41.529Z,100.00
2023-05-01T20:38:20.509Z,100.00
2023-05-01T20:40:51.153Z,100.00
2023-05-01T20:43:32.161Z,100.00
2023-05-01T20:45:59.886Z,100.00
2023-05-01T20:48:33.312Z,100.00
2023-05-01T20:51:10.035Z,100.00
2023-05-01T20:53:46.507Z,100.00
2023-05-01T20:56:32.558Z,100.00
2023-05-01T20:59:03.713Z,100.00
2023-05-01T21:01:33.960Z,100.00
2023-05-01T21:04:26.967Z,100.00
2023-05-01T21:07:20.533Z,100.00
2023-05-01T21:09:53.763Z,100.00
2023-05-01T21:12:21.080Z,100.00
2023-05-01T21:14:51.051Z,100.00
2023-05-01T21:17:29.849Z,100.00
2023-05-01T21:19:57.282Z,100.00
2023-05-01T21:22:25.271Z,100.00
2023-05-01T21:25:03.551Z,100.00
2023-05-01T21:27:36.026Z,100.00
2023-05-01T21:30:07.727Z,100.00
2023-05-01T21:32:49.437Z,100.00
2023-05-01T21:35:19.245Z,100.00
2023-05-01T21:37:53.007Z,100.00
2023-05-01T21:40:26.160Z,100.00
2023-05-01T21:42:56.652Z,100.00
2023-05-01T21:45:23.714Z,100.00
2023-05-01T21:47:51.579Z,100.00
2023-05-01T21:50:22.179Z,100.00
2023-05-01T21:52:50.221Z,100.00
2023-05-01T21:55:22.686Z,100.00
2023-05-01T21:57:54.663Z,100.00
2023-05-01T22:00:25.372Z,100.00
2023-05-01T22:02:52.610Z,100.00
2023-05-01T22:05:22.731Z,100.00
2023-05-01T22:07:52.147Z,100.00
2023-05-01T22:10:20.137Z,100.00
2023-05-01T22:13:09.914Z,100.00
2023-05-01T22:15:51.093Z,100.00
2023-05-01T22:18:23.069Z,100.00
2023-05-01T22:20:50.072Z,100.00
2023-05-01T22:23:16.819Z,100.00
2023-05-01T22:25:44.224Z,100.00
2023-05-01T22:28:10.984Z,100.00
2023-05-01T22:30:41.139Z,100.00
2023-05-01T22:33:08.373Z,100.00
2023-05-01T22:35:35.384Z,100.00
2023-05-01T22:38:02.430Z,100.00
2023-05-01T22:40:29.238Z,100.00
2023-05-01T22:42:56.161Z,100.00
2023-05-01T22:45:23.105Z,100.00
2023-05-01T22:47:50.119Z,100.00
2023-05-01T22:50:17.173Z,100.00
2023-05-01T22:52:46.474Z,100.00
2023-05-01T22:55:19.817Z,100.00
2023-05-01T22:57:46.934Z,100.00
2023-05-01T23:00:14.291Z,100.00
2023-05-01T23:02:41.420Z,100.00
2023-05-01T23:05:09.136Z,100.00
2023-05-01T23:07:36.833Z,100.00
2023-05-01T23:10:04.183Z,100.00
2023-05-01T23:12:32.139Z,100.00
2023-05-01T23:14:59.794Z,100.00
2023-05-01T23:17:32.615Z,100.00
2023-05-01T23:20:00.411Z,100.00
2023-05-01T23:22:29.959Z,100.00
2023-05-01T23:24:57.223Z,100.00
2023-05-01T23:27:24.118Z,100.00
2023-05-01T23:29:57.537Z,100.00
2023-05-01T23:32:28.853Z,100.00
2023-05-01T23:35:15.697Z,100.00
2023-05-01T23:37:47.962Z,100.00
2023-05-01T23:40:14.825Z,100.00
2023-05-01T23:42:41.825Z,100.00
2023-05-01T23:45:09.676Z,100.00
2023-05-01T23:47:37.394Z,100.00
2023-05-01T23:50:04.751Z,100.00
2023-05-01T23:52:35.024Z,100.00
2023-05-01T23:55:02.906Z,100.00
2023-05-01T23:57:29.726Z,100.00
2023-05-01T23:59:56.914Z,100.00
